createdAt,value
2023-03-13T00:02:09.832Z,100040.00
2023-03-13T00:04:39.298Z,100041.69
2023-03-13T00:07:07.368Z,100033.94
2023-03-13T00:09:35.258Z,100023.59
2023-03-13T00:12:03.249Z,100029.19
2023-03-13T00:14:31.154Z,100014.91
2023-03-13T00:16:59.396Z,100011.81
2023-03-13T00:19:27.458Z,100004.09
2023-03-13T00:21:57.132Z,99996.44
2023-03-13T00:24:24.982Z,99974.84
2023-03-13T00:26:53.407Z,99974.69
2023-03-13T00:29:21.276Z,99982.16
2023-03-13T00:31:49.508Z,99965.56
2023-03-13T00:34:17.931Z,99944.19
2023-03-13T00:36:45.933Z,99953.34
2023-03-13T00:39:15.567Z,99934.00
2023-03-13T00:41:43.873Z,99934.47
2023-03-13T00:44:11.998Z,99928.25
2023-03-13T00:46:39.947Z,99918.34
2023-03-13T00:49:08.912Z,99911.38
2023-03-13T00:51:36.876Z,99907.50
2023-03-13T00:54:05.464Z,99890.25
2023-03-13T00:56:35.557Z,99897.81
2023-03-13T00:59:03.588Z,99892.97
2023-03-13T01:01:33.545Z,99872.25
2023-03-13T01:04:03.170Z,99883.97
2023-03-13T01:06:33.350Z,99878.47
2023-03-13T01:09:02.112Z,99873.94
2023-03-13T01:11:31.876Z,99859.34
2023-03-13T01:14:04.927Z,99859.94
2023-03-13T01:16:34.756Z,99847.22
2023-03-13T01:19:05.531Z,99848.72
2023-03-13T01:21:33.531Z,99827.56
2023-03-13T01:24:02.442Z,99839.56
2023-03-13T01:26:30.632Z,99831.78
2023-03-13T01:28:58.888Z,99829.78
2023-03-13T01:31:30.878Z,99824.16
2023-03-13T01:34:02.212Z,99818.97
2023-03-13T01:36:31.195Z,99814.09
2023-03-13T01:39:01.493Z,99803.53
2023-03-13T01:41:31.745Z,99784.63
2023-03-13T01:44:00.482Z,99787.59
2023-03-13T01:46:35.427Z,99773.72
2023-03-13T01:49:15.943Z,99768.59
2023-03-13T01:52:08.626Z,99756.50
2023-03-13T01:54:45.594Z,99749.41
2023-03-13T01:57:22.246Z,99733.69
2023-03-13T01:59:54.884Z,99731.56
2023-03-13T02:02:25.713Z,99723.56
2023-03-13T02:04:58.087Z,99709.63
2023-03-13T02:07:31.807Z,99702.09
2023-03-13T02:10:00.780Z,99682.34
2023-03-13T02:12:32.888Z,99670.84
2023-03-13T02:15:06.044Z,99663.66
2023-03-13T02:17:37.084Z,99650.94
2023-03-13T02:20:05.675Z,99636.09
2023-03-13T02:22:41.597Z,99629.22
2023-03-13T02:25:18.894Z,99627.69
2023-03-13T02:27:49.506Z,99620.03
2023-03-13T02:30:17.575Z,99612.50
2023-03-13T02:32:46.862Z,99603.84
2023-03-13T02:35:18.008Z,99602.25
2023-03-13T02:37:49.519Z,99594.19
2023-03-13T02:40:25.859Z,99587.44
2023-03-13T02:42:56.737Z,99580.34
2023-03-13T02:45:24.869Z,99569.97
2023-03-13T02:47:52.941Z,99557.31
2023-03-13T02:50:22.212Z,99546.72
2023-03-13T02:52:57.012Z,99548.78
2023-03-13T02:55:27.108Z,99522.84
2023-03-13T02:57:56.572Z,99530.91
2023-03-13T03:00:26.830Z,99510.97
2023-03-13T03:02:56.455Z,99503.56
2023-03-13T03:05:25.492Z,99514.31
2023-03-13T03:07:53.580Z,99507.19
2023-03-13T03:10:21.547Z,99513.41
2023-03-13T03:12:50.167Z,99480.91
2023-03-13T03:15:20.988Z,99467.88
2023-03-13T03:17:49.788Z,99460.78
2023-03-13T03:20:17.844Z,99470.97
2023-03-13T03:22:45.739Z,99458.16
2023-03-13T03:25:14.322Z,99445.13
2023-03-13T03:27:42.598Z,99439.44
2023-03-13T03:30:12.295Z,99440.56
2023-03-13T03:32:42.286Z,99435.03
2023-03-13T03:35:10.792Z,99431.94
2023-03-13T03:37:38.859Z,99426.50
2023-03-13T03:40:08.003Z,99416.38
2023-03-13T03:42:36.465Z,99415.66
2023-03-13T03:45:06.473Z,99422.47
2023-03-13T03:47:34.703Z,99415.44
2023-03-13T03:50:04.789Z,99403.81
2023-03-13T03:52:40.088Z,99407.38
2023-03-13T03:55:08.616Z,99396.63
2023-03-13T03:57:36.788Z,99401.03
2023-03-13T04:00:08.054Z,99378.28
2023-03-13T04:02:41.053Z,99388.81
2023-03-13T04:05:12.025Z,99384.41
2023-03-13T04:07:41.579Z,99400.09
2023-03-13T04:10:11.111Z,99383.78
2023-03-13T04:12:44.239Z,99374.56
2023-03-13T04:15:12.970Z,99378.44
2023-03-13T04:17:41.639Z,99366.78
2023-03-13T04:20:14.654Z,99376.69
2023-03-13T04:22:43.300Z,99360.50
2023-03-13T04:25:12.417Z,99348.78
2023-03-13T04:27:40.426Z,99346.19
2023-03-13T04:30:11.243Z,99366.63
2023-03-13T04:33:02.617Z,99337.88
2023-03-13T04:35:35.268Z,99344.00
2023-03-13T04:38:30.003Z,99332.03
2023-03-13T04:40:57.907Z,99345.34
2023-03-13T04:43:51.727Z,99345.41
2023-03-13T04:46:45.777Z,99330.44
2023-03-13T04:49:34.992Z,99324.81
2023-03-13T04:52:30.595Z,99322.31
2023-03-13T04:55:18.865Z,99315.50
2023-03-13T04:57:55.442Z,99324.53
2023-03-13T05:00:37.883Z,99300.44
2023-03-13T05:03:24.668Z,99316.84
2023-03-13T05:06:08.872Z,99284.88
2023-03-13T05:08:58.916Z,99294.59
2023-03-13T05:11:45.522Z,99286.59
2023-03-13T05:14:50.341Z,99322.56
2023-03-13T05:17:32.952Z,99279.22
2023-03-13T05:20:21.814Z,99285.34
2023-03-13T05:23:04.119Z,99270.88
2023-03-13T05:25:49.896Z,99250.81
2023-03-13T05:28:26.975Z,99261.72
2023-03-13T05:31:30.411Z,99370.97
2023-03-13T05:34:10.160Z,99254.41
2023-03-13T05:36:44.223Z,99254.44
2023-03-13T05:39:30.815Z,99287.13
2023-03-13T05:42:14.305Z,99242.94
2023-03-13T05:44:51.565Z,99258.00
2023-03-13T05:47:49.464Z,99273.28
2023-03-13T05:50:35.968Z,99251.69
2023-03-13T05:53:42.369Z,99283.13
2023-03-13T05:56:26.989Z,99262.19
2023-03-13T05:59:07.602Z,99236.63
2023-03-13T06:02:11.101Z,99249.00
2023-03-13T06:04:44.091Z,99250.06
2023-03-13T06:07:12.524Z,99225.94
2023-03-13T06:09:41.721Z,99225.97
2023-03-13T06:12:11.966Z,99224.31
2023-03-13T06:14:41.794Z,99251.69
2023-03-13T06:17:15.488Z,99219.03
2023-03-13T06:19:43.520Z,99221.19
2023-03-13T06:22:11.495Z,99222.41
2023-03-13T06:24:39.634Z,99227.66
2023-03-13T06:27:08.532Z,99229.72
2023-03-13T06:29:36.746Z,99229.53
2023-03-13T06:32:06.997Z,99234.22
2023-03-13T06:34:35.128Z,99216.66
2023-03-13T06:37:03.225Z,99227.69
2023-03-13T06:39:31.535Z,99240.03
2023-03-13T06:41:59.873Z,99211.41
2023-03-13T06:44:28.104Z,99236.50
2023-03-13T06:46:56.042Z,99216.41
2023-03-13T06:49:25.634Z,99294.53
2023-03-13T06:51:53.674Z,99228.34
2023-03-13T06:54:21.529Z,99211.41
2023-03-13T06:56:49.473Z,99221.03
2023-03-13T06:59:17.457Z,99199.47
2023-03-13T07:01:46.003Z,99199.50
2023-03-13T07:04:14.874Z,99190.69
2023-03-13T07:06:44.380Z,99226.06
2023-03-13T07:09:12.509Z,99208.69
2023-03-13T07:11:40.948Z,99189.66
2023-03-13T07:14:16.949Z,99190.28
2023-03-13T07:16:45.772Z,99195.31
2023-03-13T07:19:14.427Z,99189.03
2023-03-13T07:21:44.316Z,99179.19
2023-03-13T07:24:12.702Z,99194.25
2023-03-13T07:26:46.456Z,99208.09
2023-03-13T07:29:22.507Z,99184.84
2023-03-13T07:31:50.516Z,99207.06
2023-03-13T07:34:18.647Z,99187.16
2023-03-13T07:36:48.621Z,99202.84
2023-03-13T07:39:16.760Z,99189.03
2023-03-13T07:41:44.818Z,99198.25
2023-03-13T07:44:17.198Z,99184.84
2023-03-13T07:46:46.052Z,99207.88
2023-03-13T07:49:14.291Z,99228.63
2023-03-13T07:51:44.273Z,99208.94
2023-03-13T07:54:14.336Z,99202.41
2023-03-13T07:56:42.335Z,99213.13
2023-03-13T07:59:10.621Z,99227.53
2023-03-13T08:01:38.668Z,99205.13
2023-03-13T08:04:07.523Z,99220.84
2023-03-13T08:06:36.921Z,99215.19
2023-03-13T08:09:06.679Z,99208.25
2023-03-13T08:11:36.058Z,99240.09
2023-03-13T08:14:04.273Z,99259.34
2023-03-13T08:16:34.930Z,99258.75
2023-03-13T08:19:05.865Z,99205.34
2023-03-13T08:21:35.958Z,99223.16
2023-03-13T08:24:07.276Z,99206.00
2023-03-13T08:26:38.990Z,99199.09
2023-03-13T08:29:09.158Z,99209.56
2023-03-13T08:31:39.353Z,99196.16
2023-03-13T08:34:07.305Z,99212.09
2023-03-13T08:36:36.906Z,99204.97
2023-03-13T08:39:07.050Z,99178.56
2023-03-13T08:41:37.785Z,99172.06
2023-03-13T08:44:06.520Z,99216.50
2023-03-13T08:46:36.218Z,99197.44
2023-03-13T08:49:05.469Z,99187.13
2023-03-13T08:51:33.528Z,99200.75
2023-03-13T08:54:02.765Z,99214.38
2023-03-13T08:56:31.671Z,99182.47
2023-03-13T08:59:02.699Z,99262.19
2023-03-13T09:01:33.311Z,99188.16
2023-03-13T09:04:03.868Z,99203.28
2023-03-13T09:06:32.565Z,99208.47
2023-03-13T09:09:00.526Z,99183.09
2023-03-13T09:11:28.990Z,99216.88
2023-03-13T09:13:59.368Z,99216.63
2023-03-13T09:16:30.675Z,99239.94
2023-03-13T09:19:00.122Z,99189.59
2023-03-13T09:21:30.098Z,99202.84
2023-03-13T09:23:58.972Z,99186.06
2023-03-13T09:26:28.332Z,99257.81
2023-03-13T09:28:57.202Z,99200.09
2023-03-13T09:31:26.718Z,99191.69
2023-03-13T09:33:56.268Z,99179.75
2023-03-13T09:36:24.936Z,99183.09
2023-03-13T09:38:54.750Z,99187.09
2023-03-13T09:41:26.757Z,99192.16
2023-03-13T09:44:03.182Z,99200.75
2023-03-13T09:46:38.898Z,99173.50
2023-03-13T09:49:17.850Z,99157.78
2023-03-13T09:51:51.223Z,99186.72
2023-03-13T09:54:25.905Z,99188.81
2023-03-13T09:56:57.568Z,99164.66
2023-03-13T09:59:30.993Z,99158.34
2023-03-13T10:02:02.110Z,99166.09
2023-03-13T10:04:40.473Z,99178.47
2023-03-13T10:07:12.246Z,99152.69
2023-03-13T10:09:41.530Z,99153.25
2023-03-13T10:12:16.836Z,99135.63
2023-03-13T10:14:49.668Z,99156.59
2023-03-13T10:17:29.336Z,99140.84
2023-03-13T10:20:02.329Z,99155.75
2023-03-13T10:22:32.525Z,99146.81
2023-03-13T10:25:04.317Z,99137.28
2023-03-13T10:27:32.448Z,99144.78
2023-03-13T10:30:00.456Z,99190.31
2023-03-13T10:32:28.671Z,99154.91
2023-03-13T10:35:00.492Z,99139.31
2023-03-13T10:37:30.743Z,99119.19
2023-03-13T10:40:15.063Z,99139.75
2023-03-13T10:42:46.193Z,99134.69
2023-03-13T10:45:18.222Z,99147.09
2023-03-13T10:47:46.216Z,99137.56
2023-03-13T10:50:24.426Z,99203.41
2023-03-13T10:52:52.979Z,99121.31
2023-03-13T10:55:23.405Z,99128.88
2023-03-13T10:57:59.743Z,99127.78
2023-03-13T11:00:36.533Z,99144.31
2023-03-13T11:03:08.890Z,99141.25
2023-03-13T11:05:43.692Z,99157.00
2023-03-13T11:08:22.713Z,99158.44
2023-03-13T11:11:02.291Z,99139.31
2023-03-13T11:13:37.643Z,99144.78
2023-03-13T11:16:22.107Z,99092.09
2023-03-13T11:19:09.282Z,99106.09
2023-03-13T11:21:49.238Z,99181.31
2023-03-13T11:24:25.540Z,99095.97
2023-03-13T11:27:05.076Z,99126.41
2023-03-13T11:29:43.188Z,99107.94
2023-03-13T11:32:23.849Z,99117.25
2023-03-13T11:34:55.717Z,99161.53
2023-03-13T11:37:27.277Z,99103.31
2023-03-13T11:40:11.089Z,99112.84
2023-03-13T11:42:45.301Z,99144.63
2023-03-13T11:45:22.654Z,99085.63
2023-03-13T11:47:58.944Z,99109.38
2023-03-13T11:50:36.898Z,99165.44
2023-03-13T11:53:21.449Z,99119.25
2023-03-13T11:56:03.368Z,99119.34
2023-03-13T11:58:52.761Z,99068.47
2023-03-13T12:01:24.216Z,99103.63
2023-03-13T12:03:59.496Z,99084.50
2023-03-13T12:06:32.068Z,99092.59
2023-03-13T12:09:08.343Z,99070.19
2023-03-13T12:11:43.673Z,99121.19
2023-03-13T12:14:16.286Z,99064.09
2023-03-13T12:16:49.382Z,99066.38
2023-03-13T12:19:24.622Z,99090.22
2023-03-13T12:21:55.817Z,99075.47
2023-03-13T12:24:30.865Z,99060.09
2023-03-13T12:27:03.368Z,99030.59
2023-03-13T12:29:43.082Z,99058.06
2023-03-13T12:32:16.111Z,99050.25
2023-03-13T12:34:56.553Z,99058.72
2023-03-13T12:37:32.313Z,99051.13
2023-03-13T12:40:08.624Z,99046.38
2023-03-13T12:42:48.168Z,99037.13
2023-03-13T12:45:19.272Z,99013.66
2023-03-13T12:48:10.329Z,99141.22
2023-03-13T12:50:55.568Z,99087.56
2023-03-13T12:53:58.338Z,99065.09
2023-03-13T12:56:38.779Z,99033.78
2023-03-13T12:59:10.421Z,99011.47
2023-03-13T13:01:42.578Z,99059.63
2023-03-13T13:04:15.411Z,99001.28
2023-03-13T13:06:56.591Z,99017.91
2023-03-13T13:09:26.169Z,99061.59
2023-03-13T13:11:57.655Z,99067.50
2023-03-13T13:14:59.936Z,99013.75
2023-03-13T13:17:48.379Z,99030.28
2023-03-13T13:20:32.174Z,99059.47
2023-03-13T13:23:14.744Z,99061.44
2023-03-13T13:25:42.933Z,99002.03
2023-03-13T13:28:28.749Z,98998.75
2023-03-13T13:30:57.917Z,98999.31
2023-03-13T13:33:40.967Z,98994.50
2023-03-13T13:36:31.304Z,99040.78
2023-03-13T13:39:00.100Z,98996.88
2023-03-13T13:41:38.463Z,98981.03
2023-03-13T13:44:29.483Z,99011.25
2023-03-13T13:47:01.911Z,99000.41
2023-03-13T13:49:36.540Z,99071.31
2023-03-13T13:52:37.041Z,99034.75
2023-03-13T13:55:34.274Z,98968.41
2023-03-13T13:58:05.296Z,98962.19
2023-03-13T14:00:42.016Z,98939.53
2023-03-13T14:03:20.342Z,98953.63
2023-03-13T14:05:49.929Z,98964.13
2023-03-13T14:08:24.094Z,98986.72
2023-03-13T14:11:05.253Z,98986.81
2023-03-13T14:13:33.326Z,98940.06
2023-03-13T14:16:24.104Z,98950.19
2023-03-13T14:18:53.416Z,99120.47
2023-03-13T14:21:24.515Z,98955.38
2023-03-13T14:23:52.384Z,98974.59
2023-03-13T14:26:22.026Z,98965.09
2023-03-13T14:28:51.802Z,98973.09
2023-03-13T14:31:27.769Z,98979.09
2023-03-13T14:33:57.765Z,98952.22
2023-03-13T14:36:25.995Z,98939.81
2023-03-13T14:38:56.790Z,98949.53
2023-03-13T14:41:38.320Z,98999.75
2023-03-13T14:44:08.311Z,98959.13
2023-03-13T14:46:41.486Z,98989.34
2023-03-13T14:49:17.426Z,98997.66
2023-03-13T14:51:45.726Z,98961.59
2023-03-13T14:54:28.880Z,99006.72
2023-03-13T14:57:24.045Z,98951.97
2023-03-13T14:59:53.706Z,98978.19
2023-03-13T15:02:25.478Z,98989.72
2023-03-13T15:04:57.507Z,98936.44
2023-03-13T15:07:27.630Z,98976.63
2023-03-13T15:09:55.807Z,98945.75
2023-03-13T15:12:24.612Z,98932.72
2023-03-13T15:14:54.023Z,98951.97
2023-03-13T15:17:25.463Z,98942.38
2023-03-13T15:19:55.841Z,98929.63
2023-03-13T15:22:29.275Z,98970.09
2023-03-13T15:25:06.069Z,98927.06
2023-03-13T15:27:35.735Z,98963.75
2023-03-13T15:30:03.967Z,98927.63
2023-03-13T15:32:35.566Z,98962.28
2023-03-13T15:35:12.909Z,98929.63
2023-03-13T15:37:40.881Z,98943.13
2023-03-13T15:40:15.551Z,98954.41
2023-03-13T15:42:43.729Z,98925.47
2023-03-13T15:45:12.597Z,98940.03
2023-03-13T15:47:41.959Z,98927.75
2023-03-13T15:50:13.849Z,98970.09
2023-03-13T15:52:42.333Z,98927.28
2023-03-13T15:55:12.881Z,98927.75
2023-03-13T15:57:43.993Z,98962.22
2023-03-13T16:00:18.986Z,98928.13
2023-03-13T16:02:48.576Z,98924.84
2023-03-13T16:05:17.280Z,98975.69
2023-03-13T16:07:45.384Z,98949.38
2023-03-13T16:10:19.051Z,98921.50
2023-03-13T16:12:46.824Z,98926.59
2023-03-13T16:15:15.009Z,98891.91
2023-03-13T16:17:43.009Z,98912.38
2023-03-13T16:20:19.060Z,98923.09
2023-03-13T16:22:47.163Z,98986.91
2023-03-13T16:25:16.007Z,98911.28
2023-03-13T16:27:44.467Z,98939.16
2023-03-13T16:30:18.726Z,98918.38
2023-03-13T16:32:47.271Z,98904.84
2023-03-13T16:35:17.513Z,99014.16
2023-03-13T16:37:45.885Z,98930.69
2023-03-13T16:40:18.775Z,98922.97
2023-03-13T16:42:46.718Z,98930.44
2023-03-13T16:45:15.556Z,98912.81
2023-03-13T16:47:44.967Z,98928.22
2023-03-13T16:50:24.596Z,98901.31
2023-03-13T16:52:53.710Z,98885.59
2023-03-13T16:55:24.766Z,98928.34
2023-03-13T16:57:54.860Z,98912.75
2023-03-13T17:00:24.199Z,98937.66
2023-03-13T17:02:52.509Z,98881.31
2023-03-13T17:05:22.434Z,98904.38
2023-03-13T17:07:52.280Z,98891.56
2023-03-13T17:10:23.000Z,98894.06
2023-03-13T17:12:51.314Z,98965.44
2023-03-13T17:15:21.815Z,98890.44
2023-03-13T17:17:52.445Z,98896.94
2023-03-13T17:20:25.230Z,98905.28
2023-03-13T17:22:53.794Z,98874.50
2023-03-13T17:25:21.968Z,98880.56
2023-03-13T17:27:50.041Z,98894.59
2023-03-13T17:30:24.082Z,98870.56
2023-03-13T17:32:52.859Z,98907.66
2023-03-13T17:35:23.247Z,98875.81
2023-03-13T17:37:51.614Z,98894.00
2023-03-13T17:40:21.943Z,98890.03
2023-03-13T17:42:50.287Z,98899.97
2023-03-13T17:45:18.940Z,98908.00
2023-03-13T17:47:49.323Z,98895.34
2023-03-13T17:50:21.198Z,98887.03
2023-03-13T17:52:50.597Z,98881.09
2023-03-13T17:55:19.168Z,98900.63
2023-03-13T17:57:48.403Z,98900.41
2023-03-13T18:00:22.318Z,98874.06
2023-03-13T18:02:50.507Z,98872.88
2023-03-13T18:05:19.529Z,98867.28
2023-03-13T18:07:48.316Z,98871.69
2023-03-13T18:10:22.837Z,98871.13
2023-03-13T18:12:51.577Z,98874.41
2023-03-13T18:15:20.381Z,98879.25
2023-03-13T18:17:48.642Z,98898.50
2023-03-13T18:20:18.616Z,98876.53
2023-03-13T18:22:47.160Z,98866.88
2023-03-13T18:25:16.238Z,98878.72
2023-03-13T18:27:45.969Z,98885.88
2023-03-13T18:30:20.597Z,98897.63
2023-03-13T18:32:48.858Z,98888.81
2023-03-13T18:35:17.763Z,98891.06
2023-03-13T18:37:48.376Z,98882.97
2023-03-13T18:40:20.720Z,98880.19
2023-03-13T18:42:50.627Z,98886.72
2023-03-13T18:45:21.069Z,98869.78
2023-03-13T18:47:49.400Z,98873.16
2023-03-13T18:50:23.622Z,98886.09
2023-03-13T18:52:52.285Z,98880.00
2023-03-13T18:55:20.491Z,98882.81
2023-03-13T18:57:50.266Z,98879.03
2023-03-13T19:00:20.989Z,98890.31
2023-03-13T19:02:49.596Z,98874.81
2023-03-13T19:05:18.778Z,98870.69
2023-03-13T19:07:46.990Z,98856.47
2023-03-13T19:10:20.418Z,98858.09
2023-03-13T19:12:49.959Z,98860.25
2023-03-13T19:15:19.083Z,98864.53
2023-03-13T19:17:47.152Z,98858.38
2023-03-13T19:20:17.388Z,98852.28
2023-03-13T19:22:45.288Z,98857.06
2023-03-13T19:25:17.033Z,98852.00
2023-03-13T19:27:45.598Z,98826.44
2023-03-13T19:30:19.219Z,98826.97
2023-03-13T19:32:47.169Z,98836.50
2023-03-13T19:35:18.950Z,98838.91
2023-03-13T19:37:47.048Z,98820.06
2023-03-13T19:40:19.470Z,98821.84
2023-03-13T19:42:47.483Z,98826.22
2023-03-13T19:45:17.390Z,98823.78
2023-03-13T19:47:46.749Z,98814.44
2023-03-13T19:50:19.178Z,98828.31
2023-03-13T19:52:47.300Z,98823.66
2023-03-13T19:55:15.935Z,98785.09
2023-03-13T19:57:44.131Z,98794.50
2023-03-13T20:00:20.842Z,98785.53
2023-03-13T20:02:52.011Z,98821.50
2023-03-13T20:05:20.216Z,98783.88
2023-03-13T20:07:48.826Z,98759.78
2023-03-13T20:10:17.398Z,98767.97
2023-03-13T20:12:45.522Z,98779.38
2023-03-13T20:15:13.955Z,98780.22
2023-03-13T20:17:42.019Z,98751.06
2023-03-13T20:20:13.712Z,98770.69
2023-03-13T20:22:41.915Z,98769.66
2023-03-13T20:25:10.801Z,98767.91
2023-03-13T20:27:39.166Z,98772.94
2023-03-13T20:30:09.237Z,98760.38
2023-03-13T20:32:39.449Z,98776.69
2023-03-13T20:35:15.896Z,98768.97
2023-03-13T20:37:43.908Z,98770.44
2023-03-13T20:40:13.753Z,98769.59
2023-03-13T20:42:41.776Z,98762.09
2023-03-13T20:45:10.341Z,98773.63
2023-03-13T20:47:38.313Z,98764.63
2023-03-13T20:50:07.733Z,98786.81
2023-03-13T20:52:37.308Z,98764.84
2023-03-13T20:55:06.174Z,98766.28
2023-03-13T20:57:34.050Z,98762.31
2023-03-13T21:00:02.407Z,98759.41
2023-03-13T21:02:30.817Z,98749.53
2023-03-13T21:04:58.998Z,98751.13
2023-03-13T21:07:27.190Z,98749.41
2023-03-13T21:09:56.523Z,98745.19
2023-03-13T21:12:24.496Z,98740.69
2023-03-13T21:14:53.620Z,98761.09
2023-03-13T21:17:21.540Z,98754.56
2023-03-13T21:19:49.819Z,98753.44
2023-03-13T21:22:17.870Z,98756.22
2023-03-13T21:24:48.544Z,98748.72
2023-03-13T21:27:18.298Z,98768.44
2023-03-13T21:29:47.380Z,98752.97
2023-03-13T21:32:16.141Z,98743.78
2023-03-13T21:34:44.582Z,98753.06
2023-03-13T21:37:13.064Z,98747.19
2023-03-13T21:39:42.161Z,98750.03
2023-03-13T21:42:12.703Z,98739.81
2023-03-13T21:44:42.218Z,98734.09
2023-03-13T21:47:10.321Z,98732.03
2023-03-13T21:49:38.527Z,98716.53
2023-03-13T21:52:06.559Z,98717.31
2023-03-13T21:54:34.500Z,98714.78
2023-03-13T21:57:02.428Z,98714.94
2023-03-13T21:59:31.886Z,98709.44
2023-03-13T22:02:01.153Z,98707.06
2023-03-13T22:04:29.324Z,98723.22
2023-03-13T22:06:57.547Z,98712.53
2023-03-13T22:09:25.470Z,98711.16
2023-03-13T22:11:53.585Z,98719.31
2023-03-13T22:14:22.184Z,98721.25
2023-03-13T22:16:50.547Z,98724.16
2023-03-13T22:19:20.122Z,98719.34
2023-03-13T22:21:48.217Z,98714.16
2023-03-13T22:24:16.148Z,98729.41
2023-03-13T22:26:44.039Z,98712.47
2023-03-13T22:29:12.126Z,98720.13
2023-03-13T22:31:40.218Z,98704.66
2023-03-13T22:34:08.579Z,98691.88
2023-03-13T22:36:38.267Z,98687.06
2023-03-13T22:39:07.368Z,98697.84
2023-03-13T22:41:36.082Z,98698.41
2023-03-13T22:44:04.644Z,98683.78
2023-03-13T22:46:34.279Z,98678.66
2023-03-13T22:49:02.742Z,98670.38
2023-03-13T22:51:31.564Z,98669.19
2023-03-13T22:54:01.823Z,98674.81
2023-03-13T22:56:30.391Z,98685.06
2023-03-13T22:58:58.507Z,98664.38
2023-03-13T23:01:27.989Z,98659.75
2023-03-13T23:03:57.201Z,98647.16
2023-03-13T23:06:26.888Z,98636.81
2023-03-13T23:08:55.202Z,98633.84
2023-03-13T23:11:24.603Z,98632.34
2023-03-13T23:13:52.575Z,98636.09
2023-03-13T23:16:20.615Z,98639.31
2023-03-13T23:18:48.837Z,98634.88
2023-03-13T23:21:17.544Z,98632.34
2023-03-13T23:23:45.874Z,98650.31
2023-03-13T23:26:15.492Z,98647.75
2023-03-13T23:28:44.910Z,98627.00
2023-03-13T23:31:14.597Z,98632.94
2023-03-13T23:33:42.997Z,98629.19
2023-03-13T23:36:13.996Z,98628.75
2023-03-13T23:38:42.414Z,98618.59
2023-03-13T23:41:12.613Z,98608.09
2023-03-13T23:43:43.842Z,98601.97
2023-03-13T23:46:18.907Z,98600.22
2023-03-13T23:48:47.431Z,98603.59
2023-03-13T23:51:15.512Z,98611.75
2023-03-13T23:53:44.462Z,98608.25
2023-03-13T23:56:13.053Z,98610.19
2023-03-13T23:58:41.345Z,98606.63
